createdAt,value
2023-01-15T05:16:58.357Z,98741.91
2023-01-15T05:19:24.988Z,98735.38
2023-01-15T05:21:54.064Z,98733.19
2023-01-15T05:24:20.642Z,98745.09
2023-01-15T05:26:47.316Z,98747.75
2023-01-15T05:29:14.004Z,98761.38
2023-01-15T05:31:42.675Z,98759.03
2023-01-15T05:34:10.030Z,98762.63
2023-01-15T05:36:37.676Z,98778.03
2023-01-15T05:39:07.092Z,98786.09
2023-01-15T05:41:49.049Z,98789.22
2023-01-15T05:44:25.738Z,98786.63
2023-01-15T05:46:54.942Z,98785.84
2023-01-15T05:49:23.984Z,98783.94
2023-01-15T05:51:51.967Z,98797.69
2023-01-15T05:54:24.635Z,98797.91
2023-01-15T05:56:51.426Z,98800.03
2023-01-15T05:59:21.375Z,98792.69
2023-01-15T06:01:47.991Z,98805.16
2023-01-15T06:04:15.219Z,98804.41
2023-01-15T06:06:43.198Z,98798.72
2023-01-15T06:09:10.533Z,98800.34
2023-01-15T06:11:37.159Z,98795.69
2023-01-15T06:14:03.756Z,98802.38
2023-01-15T06:16:30.823Z,98807.22
2023-01-15T06:19:02.223Z,98801.22
2023-01-15T06:21:29.021Z,98795.28
2023-01-15T06:23:55.674Z,98789.97
2023-01-15T06:26:22.255Z,98787.91
2023-01-15T06:28:49.762Z,98793.50
2023-01-15T06:31:19.286Z,98805.38
2023-01-15T06:33:46.372Z,98806.50
2023-01-15T06:36:15.997Z,98806.25
2023-01-15T06:38:44.331Z,98813.84
2023-01-15T06:41:32.920Z,98816.00
2023-01-15T06:44:18.060Z,98828.69
2023-01-15T06:47:05.652Z,98838.44
2023-01-15T06:49:33.262Z,98826.22
2023-01-15T06:52:00.230Z,98836.31
2023-01-15T06:54:27.525Z,98834.00
2023-01-15T06:56:54.088Z,98837.47
2023-01-15T06:59:21.031Z,98840.09
2023-01-15T07:01:48.201Z,98837.69
2023-01-15T07:04:15.973Z,98848.47
2023-01-15T07:06:42.748Z,98835.06
2023-01-15T07:09:09.429Z,98838.78
2023-01-15T07:11:49.341Z,98838.97
2023-01-15T07:14:28.152Z,98855.19
2023-01-15T07:16:55.544Z,98852.31
2023-01-15T07:19:22.361Z,98852.44
2023-01-15T07:21:49.514Z,98859.53
2023-01-15T07:24:17.804Z,98863.56
2023-01-15T07:26:46.029Z,98870.41
2023-01-15T07:29:13.557Z,98872.19
2023-01-15T07:31:41.514Z,98865.22
2023-01-15T07:34:08.733Z,98875.88
2023-01-15T07:36:36.155Z,98878.75
2023-01-15T07:39:08.863Z,98885.16
2023-01-15T07:41:54.237Z,98888.28
2023-01-15T07:44:39.994Z,98882.25
2023-01-15T07:47:36.603Z,98890.00
2023-01-15T07:50:04.270Z,98895.00
2023-01-15T07:52:30.918Z,98893.22
2023-01-15T07:55:16.374Z,98892.63
2023-01-15T07:57:45.411Z,98901.59
2023-01-15T08:00:20.450Z,98903.91
2023-01-15T08:02:49.904Z,98915.41
2023-01-15T08:05:19.600Z,98911.28
2023-01-15T08:07:47.693Z,98918.94
2023-01-15T08:10:14.700Z,98917.66
2023-01-15T08:13:00.363Z,98920.56
2023-01-15T08:15:37.897Z,98924.63
2023-01-15T08:18:05.164Z,98922.69
2023-01-15T08:20:31.739Z,98926.84
2023-01-15T08:23:01.192Z,98926.34
2023-01-15T08:25:27.931Z,98923.56
2023-01-15T08:27:55.311Z,98926.59
2023-01-15T08:30:25.389Z,98929.06
2023-01-15T08:32:52.298Z,98924.38
2023-01-15T08:35:19.084Z,98928.38
2023-01-15T08:37:45.875Z,98931.25
2023-01-15T08:40:12.874Z,98929.72
2023-01-15T08:42:40.625Z,98932.06
2023-01-15T08:45:11.076Z,98945.91
2023-01-15T08:47:40.624Z,98954.44
2023-01-15T08:50:11.254Z,98951.84
2023-01-15T08:56:14.909Z,98961.47
2023-01-15T08:58:41.911Z,98962.88
2023-01-15T09:01:20.352Z,98973.41
2023-01-15T09:04:03.351Z,98962.34
2023-01-15T09:06:44.695Z,98974.91
2023-01-15T09:09:21.951Z,98977.34
2023-01-15T09:11:49.209Z,98984.59
2023-01-15T09:15:00.439Z,98989.81
2023-01-15T09:17:23.308Z,99002.41
2023-01-15T09:19:53.600Z,98993.84
2023-01-15T09:22:20.740Z,98989.03
2023-01-15T09:25:00.322Z,98996.34
2023-01-15T09:27:28.314Z,98991.84
2023-01-15T09:29:56.775Z,98993.47
2023-01-15T09:32:29.931Z,98992.56
2023-01-15T09:35:01.443Z,99001.75
2023-01-15T09:37:54.706Z,99013.44
2023-01-15T09:44:09.743Z,99019.84
2023-01-15T09:47:11.050Z,99025.75
2023-01-15T09:49:54.364Z,99031.28
2023-01-15T09:53:13.350Z,99021.06
2023-01-15T09:56:00.983Z,99022.13
2023-01-15T09:59:12.388Z,99009.69
2023-01-15T10:01:49.786Z,99009.88
2023-01-15T10:04:58.178Z,98999.59
2023-01-15T10:07:45.593Z,99004.28
2023-01-15T10:10:23.166Z,99012.44
2023-01-15T10:13:00.209Z,99009.75
2023-01-15T10:15:44.277Z,99023.31
2023-01-15T10:18:20.339Z,99022.28
2023-01-15T10:21:12.286Z,99025.41
2023-01-15T10:24:10.638Z,99017.78
2023-01-15T10:26:54.648Z,99029.56
2023-01-15T10:29:40.566Z,99018.34
2023-01-15T10:32:13.532Z,99012.38
2023-01-15T10:35:18.008Z,99020.97
2023-01-15T10:38:26.290Z,99017.16
2023-01-15T10:41:40.141Z,99017.81
2023-01-15T10:44:36.848Z,99017.91
2023-01-15T10:47:11.578Z,99025.06
2023-01-15T10:49:57.733Z,99045.38
2023-01-15T10:52:44.742Z,99023.28
2023-01-15T10:55:26.293Z,99024.84
2023-01-15T10:58:22.311Z,99038.28
2023-01-15T11:00:57.752Z,99046.16
2023-01-15T11:03:54.116Z,99049.34
2023-01-15T11:10:27.587Z,99042.31
2023-01-15T11:13:18.070Z,99048.72
2023-01-15T11:16:14.417Z,99035.84
2023-01-15T11:19:08.915Z,99041.09
2023-01-15T11:21:42.342Z,99048.53
2023-01-15T11:24:17.878Z,99055.25
2023-01-15T11:26:54.849Z,99071.75
2023-01-15T11:30:02.106Z,99059.94
2023-01-15T11:32:37.114Z,99065.56
2023-01-15T11:35:18.841Z,99071.81
2023-01-15T11:37:45.865Z,99068.59
2023-01-15T11:40:21.304Z,99060.06
2023-01-15T11:43:08.264Z,99065.97
2023-01-15T11:46:05.694Z,99071.16
2023-01-15T11:49:03.372Z,99071.00
2023-01-15T11:51:36.053Z,99061.22
2023-01-15T11:54:04.712Z,99059.16
2023-01-15T11:56:35.017Z,99057.16
2023-01-15T11:59:05.307Z,99048.09
2023-01-15T12:01:36.014Z,99056.31
2023-01-15T12:04:22.851Z,99044.25
2023-01-15T12:06:49.962Z,99048.13
2023-01-15T12:10:07.341Z,99040.16
2023-01-15T12:12:55.920Z,99034.78
2023-01-15T12:15:22.298Z,99033.53
2023-01-15T12:18:04.636Z,99034.22
2023-01-15T12:21:01.843Z,99030.78
2023-01-15T12:23:48.568Z,99017.81
2023-01-15T12:26:26.405Z,99017.19
2023-01-15T12:29:17.175Z,99015.19
2023-01-15T12:32:01.869Z,99010.84
2023-01-15T12:34:49.356Z,99008.44
2023-01-15T12:37:26.095Z,99019.78
2023-01-15T12:39:58.947Z,99013.88
2023-01-15T12:42:46.672Z,99009.78
2023-01-15T12:45:21.705Z,99004.16
2023-01-15T12:48:05.103Z,98994.34
2023-01-15T12:50:49.284Z,98994.16
2023-01-15T12:53:34.597Z,99002.34
2023-01-15T12:56:10.308Z,99015.69
2023-01-15T12:58:57.584Z,99012.38
2023-01-15T13:01:38.310Z,99018.72
2023-01-15T13:04:28.846Z,99031.38
2023-01-15T13:07:05.010Z,99022.63
2023-01-15T13:09:39.291Z,99017.94
2023-01-15T13:12:14.425Z,99020.28
2023-01-15T13:14:42.811Z,99015.41
2023-01-15T13:17:25.823Z,99031.88
2023-01-15T13:20:13.625Z,99040.75
2023-01-15T13:22:54.790Z,99022.13
2023-01-15T13:25:46.379Z,99029.69
2023-01-15T13:28:39.183Z,99033.22
2023-01-15T13:31:43.449Z,99035.00
2023-01-15T13:34:36.555Z,99022.19
2023-01-15T13:37:12.516Z,99039.84
2023-01-15T13:39:43.586Z,99027.13
2023-01-15T13:42:36.996Z,99030.34
2023-01-15T13:45:18.803Z,99037.94
2023-01-15T13:47:49.026Z,99030.97
2023-01-15T13:50:29.197Z,99049.50
2023-01-15T13:53:27.966Z,99042.00
2023-01-15T13:56:05.475Z,99032.09
2023-01-15T13:58:34.787Z,99041.88
2023-01-15T14:01:02.607Z,99039.16
2023-01-15T14:03:32.199Z,99044.03
2023-01-15T14:06:01.065Z,99038.63
2023-01-15T14:08:45.188Z,99040.28
2023-01-15T14:11:36.057Z,99045.28
2023-01-15T14:14:21.371Z,99040.94
2023-01-15T14:17:19.628Z,99056.50
2023-01-15T14:20:10.356Z,99045.75
2023-01-15T14:22:54.959Z,99058.97
2023-01-15T14:25:28.260Z,99052.88
2023-01-15T14:28:04.602Z,99056.03
2023-01-15T14:30:40.749Z,99069.09
2023-01-15T14:33:26.053Z,99080.81
2023-01-15T14:35:53.204Z,99081.28
2023-01-15T14:38:27.382Z,99092.50
2023-01-15T14:40:59.958Z,99104.38
2023-01-15T14:43:31.477Z,99089.94
2023-01-15T14:46:15.106Z,99087.00
2023-01-15T14:48:48.323Z,99074.03
2023-01-15T14:51:22.736Z,99065.47
2023-01-15T14:53:51.540Z,99082.19
2023-01-15T14:56:27.102Z,99070.56
2023-01-15T14:59:03.724Z,99081.50
2023-01-15T15:01:54.986Z,99097.34
2023-01-15T15:04:35.483Z,99098.72
2023-01-15T15:07:10.584Z,99086.56
2023-01-15T15:10:03.397Z,99102.44
2023-01-15T15:12:56.839Z,99121.25
2023-01-15T15:15:26.220Z,99119.81
2023-01-15T15:17:55.612Z,99129.56
2023-01-15T15:20:44.578Z,99130.66
2023-01-15T15:23:51.601Z,99130.28
2023-01-15T15:26:24.136Z,99127.66
2023-01-15T15:29:03.527Z,99131.66
2023-01-15T15:31:37.532Z,99145.53
2023-01-15T15:34:07.389Z,99135.41
2023-01-15T15:36:39.530Z,99138.97
2023-01-15T15:39:24.233Z,99141.78
2023-01-15T15:42:11.890Z,99140.53
2023-01-15T15:45:16.276Z,99136.03
2023-01-15T15:48:02.007Z,99133.56
2023-01-15T15:50:34.747Z,99143.31
2023-01-15T15:53:09.296Z,99142.84
2023-01-15T15:55:43.888Z,99138.19
2023-01-15T15:58:31.314Z,99147.53
2023-01-15T16:01:03.695Z,99147.03
2023-01-15T16:03:35.448Z,99154.16
2023-01-15T16:06:07.711Z,99157.97
2023-01-15T16:08:35.960Z,99151.97
2023-01-15T16:11:12.315Z,99149.28
2023-01-15T16:13:46.386Z,99144.88
2023-01-15T16:16:16.432Z,99140.22
2023-01-15T16:18:47.127Z,99144.56
2023-01-15T16:21:20.771Z,99158.75
2023-01-15T16:24:07.910Z,99140.19
2023-01-15T16:26:38.731Z,99153.69
2023-01-15T16:29:14.093Z,99155.19
2023-01-15T16:31:40.662Z,99157.22
2023-01-15T16:34:19.506Z,99146.84
2023-01-15T16:36:47.108Z,99150.13
2023-01-15T16:39:24.589Z,99160.03
2023-01-15T16:41:58.468Z,99161.91
2023-01-15T16:44:26.722Z,99166.09
2023-01-15T16:46:58.148Z,99159.75
2023-01-15T16:49:28.108Z,99140.75
2023-01-15T16:52:00.192Z,99155.63
2023-01-15T16:54:29.982Z,99158.53
2023-01-15T16:57:00.928Z,99152.69
2023-01-15T16:59:27.521Z,99152.78
2023-01-15T17:01:59.813Z,99151.47
2023-01-15T17:04:37.929Z,99159.72
2023-01-15T17:07:14.029Z,99181.16
2023-01-15T17:09:54.032Z,99159.41
2023-01-15T17:12:35.730Z,99158.44
2023-01-15T17:15:18.126Z,99161.19
2023-01-15T17:17:49.918Z,99164.13
2023-01-15T17:20:19.056Z,99174.03
2023-01-15T17:22:48.736Z,99169.75
2023-01-15T17:25:33.331Z,99168.69
2023-01-15T17:28:00.470Z,99173.03
2023-01-15T17:30:31.107Z,99165.34
2023-01-15T17:33:01.912Z,99168.84
2023-01-15T17:35:31.602Z,99161.00
2023-01-15T17:37:58.427Z,99165.34
2023-01-15T17:43:36.506Z,99161.91
2023-01-15T17:46:03.778Z,99165.19
2023-01-15T17:48:30.504Z,99163.13
2023-01-15T17:51:03.150Z,99164.00
2023-01-15T17:53:30.229Z,99162.88
2023-01-15T17:56:15.581Z,99162.97
2023-01-15T17:59:00.816Z,99161.78
2023-01-15T18:01:49.078Z,99156.47
2023-01-15T18:04:43.019Z,99155.88
2023-01-15T18:07:11.127Z,99150.72
2023-01-15T18:09:38.902Z,99151.66
2023-01-15T18:12:05.952Z,99144.31
2023-01-15T18:14:35.679Z,99145.19
2023-01-15T18:17:03.134Z,99142.19
2023-01-15T18:19:29.755Z,99138.31
2023-01-15T18:21:56.318Z,99140.09
2023-01-15T18:24:23.842Z,99135.69
2023-01-15T18:26:55.625Z,99135.13
2023-01-15T18:29:22.484Z,99130.84
2023-01-15T18:31:49.043Z,99134.88
2023-01-15T18:34:15.647Z,99129.75
2023-01-15T18:36:42.293Z,99130.94
2023-01-15T18:39:12.842Z,99128.13
2023-01-15T18:41:40.704Z,99123.13
2023-01-15T18:44:35.078Z,99129.22
2023-01-15T18:47:04.729Z,99126.66
2023-01-15T18:49:32.011Z,99127.28
2023-01-15T18:52:17.348Z,99124.34
2023-01-15T18:54:44.092Z,99113.78
2023-01-15T18:57:10.655Z,99116.66
2023-01-15T19:00:04.103Z,99115.34
2023-01-15T19:02:30.866Z,99110.97
2023-01-15T19:04:57.407Z,99110.38
2023-01-15T19:07:23.892Z,99109.69
2023-01-15T19:09:50.546Z,99110.53
2023-01-15T19:12:17.302Z,99110.63
2023-01-15T19:15:02.486Z,99106.19
2023-01-15T19:17:47.666Z,99092.81
2023-01-15T19:20:17.958Z,99087.94
2023-01-15T19:23:00.240Z,99088.81
2023-01-15T19:25:41.237Z,99085.56
2023-01-15T19:28:10.255Z,99086.88
2023-01-15T19:30:38.874Z,99081.66
2023-01-15T19:33:06.950Z,99090.38
2023-01-15T19:35:35.130Z,99079.19
2023-01-15T19:38:02.374Z,99081.38
2023-01-15T19:40:31.614Z,99074.66
2023-01-15T19:43:17.053Z,99071.09
2023-01-15T19:46:03.969Z,99076.41
2023-01-15T19:48:49.222Z,99066.28
2023-01-15T19:51:16.834Z,99069.09
2023-01-15T19:53:43.475Z,99056.25
2023-01-15T19:56:10.052Z,99060.66
2023-01-15T19:58:37.229Z,99058.03
2023-01-15T20:01:04.374Z,99064.59
2023-01-15T20:03:30.977Z,99058.16
2023-01-15T20:05:58.012Z,99052.94
2023-01-15T20:08:24.551Z,99046.38
2023-01-15T20:10:51.300Z,99051.25
2023-01-15T20:13:42.221Z,99042.97
2023-01-15T20:16:21.531Z,99041.41
2023-01-15T20:18:49.135Z,99044.06
2023-01-15T20:21:16.286Z,99030.19
2023-01-15T20:23:44.009Z,99041.63
2023-01-15T20:26:12.742Z,99043.31
2023-01-15T20:28:47.052Z,99037.91
2023-01-15T20:31:15.743Z,99040.59
2023-01-15T20:33:42.328Z,99020.28
2023-01-15T20:36:09.212Z,99015.44
2023-01-15T20:38:36.796Z,99019.81
2023-01-15T20:41:28.980Z,99010.94
2023-01-15T20:44:14.195Z,99005.00
2023-01-15T20:46:40.740Z,98995.84
2023-01-15T20:49:27.330Z,98992.72
2023-01-15T20:51:55.297Z,98980.28
2023-01-15T20:54:50.526Z,98979.97
2023-01-15T20:57:17.076Z,98993.44
2023-01-15T20:59:43.531Z,98975.31
2023-01-15T21:02:13.224Z,98962.78
2023-01-15T21:04:39.919Z,98967.06
2023-01-15T21:07:07.109Z,98958.41
2023-01-15T21:09:33.928Z,98968.47
2023-01-15T21:12:00.616Z,98968.03
2023-01-15T21:14:27.206Z,98967.72
2023-01-15T21:16:53.881Z,98957.09
2023-01-15T21:19:22.824Z,98949.56
2023-01-15T21:21:49.416Z,98945.84
2023-01-15T21:24:15.929Z,98941.59
2023-01-15T21:26:42.442Z,98935.63
2023-01-15T21:29:08.946Z,98933.69
2023-01-15T21:31:35.764Z,98921.50
2023-01-15T21:34:02.533Z,98915.72
2023-01-15T21:36:29.076Z,98913.38
2023-01-15T21:38:56.862Z,98905.41
2023-01-15T21:41:42.213Z,98911.19
2023-01-15T21:44:33.591Z,98903.75
2023-01-15T21:47:06.032Z,98902.94
2023-01-15T21:49:33.530Z,98897.09
2023-01-15T21:52:03.965Z,98892.69
2023-01-15T21:54:31.709Z,98889.81
2023-01-15T21:56:58.893Z,98889.38
2023-01-15T21:59:25.608Z,98884.59
2023-01-15T22:01:56.501Z,98889.50
2023-01-15T22:04:27.557Z,98888.00
2023-01-15T22:06:55.338Z,98887.78
2023-01-15T22:09:22.884Z,98880.19
2023-01-15T22:11:52.314Z,98880.56
2023-01-15T22:14:23.957Z,98874.56
2023-01-15T22:16:55.989Z,98861.06
2023-01-15T22:19:24.926Z,98859.13
2023-01-15T22:22:00.179Z,98864.63
2023-01-15T22:24:29.029Z,98859.47
2023-01-15T22:26:57.085Z,98852.31
2023-01-15T22:29:27.407Z,98851.34
2023-01-15T22:31:53.985Z,98848.34
2023-01-15T22:34:21.991Z,98835.91
2023-01-15T22:36:49.962Z,98835.72
2023-01-15T22:39:17.001Z,98835.72
2023-01-15T22:42:03.093Z,98836.16
2023-01-15T22:44:30.095Z,98828.47
2023-01-15T22:46:56.816Z,98816.72
2023-01-15T22:49:24.199Z,98806.44
2023-01-15T22:51:51.002Z,98809.00
2023-01-15T22:54:19.261Z,98807.25
2023-01-15T22:56:46.902Z,98797.75
2023-01-15T22:59:14.669Z,98792.81
